createdAt,value
2023-11-15T00:01:14.881Z,8.05
2023-11-15T00:03:42.377Z,7.03
2023-11-15T00:06:09.851Z,8.65
2023-11-15T00:08:37.335Z,7.40
2023-11-15T00:11:05.161Z,9.05
2023-11-15T00:13:32.103Z,7.50
2023-11-15T00:15:59.256Z,7.72
2023-11-15T00:18:26.641Z,6.45
2023-11-15T00:20:54.273Z,6.57
2023-11-15T00:23:21.230Z,7.90
2023-11-15T00:25:48.257Z,9.45
2023-11-15T00:28:15.416Z,8.20
2023-11-15T00:30:42.382Z,9.02
2023-11-15T00:33:10.094Z,7.05
2023-11-15T00:35:37.126Z,6.18
2023-11-15T00:38:05.488Z,9.13
2023-11-15T00:40:32.576Z,11.40
2023-11-15T00:43:00.087Z,10.45
2023-11-15T00:45:27.084Z,14.68
2023-11-15T00:47:54.327Z,9.20
2023-11-15T00:50:21.448Z,13.02
2023-11-15T00:52:48.332Z,8.02
2023-11-15T00:55:15.342Z,9.25
2023-11-15T00:57:42.344Z,9.00
2023-11-15T01:00:25.163Z,8.48
2023-11-15T01:02:57.023Z,9.98
2023-11-15T01:05:30.180Z,15.10
2023-11-15T01:07:59.161Z,8.93
2023-11-15T01:10:28.893Z,7.05
2023-11-15T01:12:55.993Z,9.88
2023-11-15T01:15:23.311Z,6.53
2023-11-15T01:17:51.453Z,8.80
2023-11-15T01:20:19.092Z,7.50
2023-11-15T01:22:46.850Z,9.43
2023-11-15T01:25:14.771Z,9.38
2023-11-15T01:27:41.688Z,8.27
2023-11-15T01:30:10.150Z,7.32
2023-11-15T01:32:37.376Z,8.50
2023-11-15T01:35:06.944Z,7.63
2023-11-15T01:37:34.083Z,6.45
2023-11-15T01:40:07.853Z,7.65
2023-11-15T01:42:35.291Z,8.93
2023-11-15T01:45:04.097Z,10.07
2023-11-15T01:47:31.555Z,9.43
2023-11-15T01:50:00.942Z,8.10
2023-11-15T01:52:29.860Z,10.15
2023-11-15T01:54:57.959Z,11.93
2023-11-15T01:57:24.968Z,8.80
2023-11-15T01:59:52.699Z,7.93
2023-11-15T02:02:19.843Z,7.60
2023-11-15T02:04:46.767Z,9.45
2023-11-15T02:07:13.788Z,7.95
2023-11-15T02:09:42.355Z,10.32
2023-11-15T02:12:10.545Z,13.93
2023-11-15T02:14:38.946Z,11.27
2023-11-15T02:17:09.447Z,7.82
2023-11-15T02:19:37.929Z,8.88
2023-11-15T02:22:05.010Z,9.88
2023-11-15T02:24:32.639Z,7.72
2023-11-15T02:26:59.679Z,9.88
2023-11-15T02:29:26.757Z,6.80
2023-11-15T02:31:53.742Z,10.82
2023-11-15T02:34:20.766Z,11.07
2023-11-15T02:36:47.705Z,16.20
2023-11-15T02:39:15.034Z,19.10
2023-11-15T02:41:42.554Z,17.02
2023-11-15T02:44:11.576Z,13.50
2023-11-15T02:46:38.726Z,8.60
2023-11-15T02:49:05.764Z,9.73
2023-11-15T02:51:32.806Z,12.05
2023-11-15T02:53:59.896Z,7.28
2023-11-15T02:56:27.258Z,8.98
2023-11-15T02:58:54.190Z,6.72
2023-11-15T03:01:21.204Z,9.30
2023-11-15T03:03:48.297Z,7.78
2023-11-15T03:06:15.482Z,8.23
2023-11-15T03:08:42.405Z,7.13
2023-11-15T03:11:09.758Z,8.32
2023-11-15T03:13:36.818Z,8.88
2023-11-15T03:16:03.999Z,8.75
2023-11-15T03:18:31.130Z,9.00
2023-11-15T03:20:58.200Z,8.65
2023-11-15T03:23:26.084Z,8.27
2023-11-15T03:25:53.082Z,10.40
2023-11-15T03:28:20.083Z,7.28
2023-11-15T03:30:47.040Z,10.57
2023-11-15T03:33:14.098Z,10.57
2023-11-15T03:35:41.079Z,7.93
2023-11-15T03:38:08.110Z,8.75
2023-11-15T03:40:35.389Z,9.75
2023-11-15T03:43:02.386Z,8.18
2023-11-15T03:45:29.387Z,8.57
2023-11-15T03:47:56.469Z,8.88
2023-11-15T03:50:23.465Z,9.13
2023-11-15T03:52:50.446Z,9.13
2023-11-15T03:55:18.296Z,10.75
2023-11-15T03:57:47.657Z,12.10
2023-11-15T04:00:18.155Z,9.45
2023-11-15T04:02:46.717Z,14.93
2023-11-15T04:05:14.579Z,10.43
2023-11-15T04:07:43.358Z,9.77
2023-11-15T04:10:11.741Z,9.63
2023-11-15T04:12:39.329Z,10.70
2023-11-15T04:15:10.574Z,13.35
2023-11-15T04:17:37.921Z,14.63
2023-11-15T04:20:08.293Z,13.68
2023-11-15T04:22:35.465Z,7.60
2023-11-15T04:25:02.390Z,9.77
2023-11-15T04:27:31.449Z,10.32
2023-11-15T04:29:59.189Z,9.80
2023-11-15T04:32:26.454Z,7.72
2023-11-15T04:34:56.094Z,9.90
2023-11-15T04:37:23.096Z,33.58
2023-11-15T04:39:50.019Z,38.05
2023-11-15T04:42:19.283Z,78.40
2023-11-15T04:44:46.796Z,31.00
2023-11-15T04:47:13.990Z,14.20
2023-11-15T04:49:42.338Z,8.27
2023-11-15T04:52:09.474Z,9.40
2023-11-15T04:54:36.399Z,8.32
2023-11-15T04:57:04.835Z,9.60
2023-11-15T04:59:33.100Z,8.32
2023-11-15T05:02:00.265Z,8.25
2023-11-15T05:04:27.641Z,9.73
2023-11-15T05:06:57.085Z,13.75
2023-11-15T05:09:32.976Z,16.80
2023-11-15T05:12:00.067Z,17.52
2023-11-15T05:14:30.090Z,12.45
2023-11-15T05:16:57.107Z,30.92
2023-11-15T05:19:24.054Z,17.27
2023-11-15T05:21:51.101Z,23.88
2023-11-15T05:24:18.085Z,15.93
2023-11-15T05:26:46.574Z,10.32
2023-11-15T05:29:13.545Z,13.52
2023-11-15T05:31:40.490Z,9.35
2023-11-15T05:34:07.541Z,11.32
2023-11-15T05:36:34.466Z,13.73
2023-11-15T05:39:01.586Z,8.80
2023-11-15T05:41:29.845Z,9.43
2023-11-15T05:43:57.093Z,15.10
2023-11-15T05:46:24.104Z,12.55
2023-11-15T05:48:51.114Z,9.15
2023-11-15T05:51:18.170Z,9.48
2023-11-15T05:53:46.252Z,11.60
2023-11-15T05:56:14.774Z,18.17
2023-11-15T05:58:43.897Z,12.95
2023-11-15T06:01:12.367Z,8.05
2023-11-15T06:03:39.484Z,20.38
2023-11-15T06:06:06.947Z,13.00
2023-11-15T06:08:33.955Z,8.55
2023-11-15T06:11:01.178Z,19.23
2023-11-15T06:13:28.091Z,13.40
2023-11-15T06:15:55.032Z,7.50
2023-11-15T06:18:23.033Z,9.63
2023-11-15T06:20:51.311Z,11.85
2023-11-15T06:23:18.322Z,25.17
2023-11-15T06:25:45.664Z,33.58
2023-11-15T06:28:12.773Z,16.83
2023-11-15T06:30:39.896Z,16.75
2023-11-15T06:33:07.083Z,9.60
2023-11-15T06:35:34.072Z,9.88
2023-11-15T06:38:02.512Z,9.93
2023-11-15T06:40:29.502Z,17.58
2023-11-15T06:42:56.554Z,13.10
2023-11-15T06:45:23.682Z,28.90
2023-11-15T06:47:51.864Z,12.98
2023-11-15T06:50:19.923Z,7.68
2023-11-15T06:52:47.010Z,16.10
2023-11-15T06:55:13.908Z,18.38
2023-11-15T06:57:42.787Z,45.97
2023-11-15T07:00:12.564Z,10.60
2023-11-15T07:02:42.437Z,16.25
2023-11-15T07:05:11.454Z,17.83
2023-11-15T07:07:38.672Z,13.93
2023-11-15T07:10:06.924Z,13.68
2023-11-15T07:12:36.798Z,11.10
2023-11-15T07:15:05.343Z,13.57
2023-11-15T07:17:33.486Z,16.83
2023-11-15T07:20:00.765Z,13.40
2023-11-15T07:22:27.708Z,12.57
2023-11-15T07:24:54.677Z,10.90
2023-11-15T07:27:25.404Z,10.57
2023-11-15T07:29:53.439Z,10.23
2023-11-15T07:32:20.928Z,12.57
2023-11-15T07:34:48.625Z,10.52
2023-11-15T07:37:15.565Z,16.92
2023-11-15T07:39:42.602Z,16.05
2023-11-15T07:42:09.572Z,20.17
2023-11-15T07:44:37.283Z,24.27
2023-11-15T07:47:04.442Z,18.85
2023-11-15T07:49:31.437Z,18.45
2023-11-15T07:51:58.379Z,20.60
2023-11-15T07:54:25.389Z,18.55
2023-11-15T07:56:52.669Z,18.77
2023-11-15T07:59:22.964Z,16.10
2023-11-15T08:01:50.174Z,17.00
2023-11-15T08:04:17.475Z,17.48
2023-11-15T08:06:44.862Z,19.95
2023-11-15T08:09:25.978Z,19.52
2023-11-15T08:11:54.659Z,22.98
2023-11-15T08:14:22.958Z,16.27
2023-11-15T08:16:54.572Z,15.73
2023-11-15T08:19:21.711Z,11.85
2023-11-15T08:21:49.268Z,12.40
2023-11-15T08:24:22.898Z,11.43
2023-11-15T08:26:54.379Z,10.75
2023-11-15T08:29:22.774Z,9.15
2023-11-15T08:31:50.597Z,7.72
2023-11-15T08:34:22.102Z,9.27
2023-11-15T08:36:50.681Z,11.73
2023-11-15T08:39:18.325Z,10.07
2023-11-15T08:41:48.088Z,8.98
2023-11-15T08:44:16.743Z,7.95
2023-11-15T08:46:46.289Z,11.55
2023-11-15T08:49:14.066Z,12.13
2023-11-15T08:51:42.368Z,12.57
2023-11-15T08:54:11.601Z,15.23
2023-11-15T08:56:44.154Z,9.63
2023-11-15T08:59:15.569Z,9.50
2023-11-15T09:01:43.944Z,12.43
2023-11-15T09:04:14.350Z,10.27
2023-11-15T09:06:48.890Z,11.15
2023-11-15T09:09:17.279Z,9.40
2023-11-15T09:11:44.692Z,10.35
2023-11-15T09:14:11.907Z,7.10
2023-11-15T09:16:38.861Z,14.18
2023-11-15T09:19:06.078Z,8.70
2023-11-15T09:21:34.829Z,10.35
2023-11-15T09:24:02.535Z,14.52
2023-11-15T09:26:29.642Z,14.57
2023-11-15T09:28:56.594Z,12.30
2023-11-15T09:31:24.668Z,13.68
2023-11-15T09:33:53.300Z,13.30
2023-11-15T09:36:20.560Z,10.82
2023-11-15T09:38:47.578Z,13.73
2023-11-15T09:41:14.882Z,12.55
2023-11-15T09:43:45.591Z,13.65
2023-11-15T09:46:14.036Z,13.70
2023-11-15T09:48:53.145Z,13.25
2023-11-15T09:51:33.572Z,13.35
2023-11-15T09:54:12.512Z,12.40
2023-11-15T09:59:13.202Z,14.73
2023-11-15T10:01:45.917Z,10.32
2023-11-15T10:04:27.147Z,16.27
2023-11-15T10:07:04.033Z,13.88
2023-11-15T10:09:37.739Z,18.10
2023-11-15T10:12:05.482Z,7.65
2023-11-15T10:14:34.183Z,29.85
2023-11-15T10:17:08.269Z,10.40
2023-11-15T10:19:35.784Z,14.48
2023-11-15T10:22:06.112Z,14.82
2023-11-15T10:24:36.069Z,9.60
2023-11-15T10:27:09.117Z,16.30
2023-11-15T10:29:40.429Z,11.98
2023-11-15T10:32:08.077Z,10.20
2023-11-15T10:34:49.945Z,14.10
2023-11-15T10:37:17.770Z,17.45
2023-11-15T10:39:51.218Z,12.85
2023-11-15T10:42:20.096Z,24.27
2023-11-15T10:44:49.565Z,15.82
2023-11-15T10:47:20.891Z,15.02
2023-11-15T10:49:54.766Z,10.88
2023-11-15T10:52:23.475Z,16.38
2023-11-15T10:54:52.746Z,13.05
2023-11-15T10:57:22.366Z,10.23
2023-11-15T10:59:51.344Z,6.53
2023-11-15T11:02:18.966Z,7.20
2023-11-15T11:04:48.922Z,7.03
2023-11-15T11:07:27.786Z,5.93
2023-11-15T11:10:03.997Z,14.40
2023-11-15T11:12:32.380Z,7.05
2023-11-15T11:15:36.555Z,8.73
2023-11-15T11:18:05.698Z,5.78
2023-11-15T11:20:37.335Z,6.63
2023-11-15T11:23:23.510Z,5.68
2023-11-15T11:25:53.058Z,7.70
2023-11-15T11:28:22.889Z,6.93
2023-11-15T11:31:27.189Z,6.45
2023-11-15T11:34:10.915Z,11.32
2023-11-15T11:36:51.550Z,5.10
2023-11-15T11:39:25.454Z,8.10
2023-11-15T11:41:52.694Z,7.82
2023-11-15T11:44:19.951Z,6.13
2023-11-15T11:47:03.515Z,10.40
2023-11-15T11:49:46.727Z,6.03
2023-11-15T11:52:18.563Z,11.27
2023-11-15T11:57:23.142Z,7.38
2023-11-15T12:00:19.004Z,8.18
2023-11-15T12:05:26.156Z,9.95
2023-11-15T12:07:55.266Z,5.65
2023-11-15T12:10:22.270Z,7.07
2023-11-15T12:12:55.488Z,7.80
2023-11-15T12:15:25.983Z,9.95
2023-11-15T12:17:59.210Z,7.22
2023-11-15T12:20:41.220Z,6.53
2023-11-15T12:23:10.027Z,7.88
2023-11-15T12:25:50.480Z,6.18
2023-11-15T12:28:32.322Z,8.90
2023-11-15T12:31:05.091Z,7.00
2023-11-15T12:33:35.492Z,11.05
2023-11-15T12:36:07.724Z,3.00
2023-11-15T12:38:34.780Z,3.45
2023-11-15T12:41:06.964Z,11.90
2023-11-15T12:43:35.102Z,2.17
2023-11-15T12:46:17.265Z,26.73
2023-11-15T12:48:48.956Z,3.78
2023-11-15T12:51:16.776Z,6.78
2023-11-15T12:53:43.967Z,3.08
2023-11-15T12:56:21.074Z,2.85
2023-11-15T12:58:49.414Z,4.43
2023-11-15T13:01:19.632Z,8.57
2023-11-15T13:03:48.300Z,15.27
2023-11-15T13:06:20.308Z,7.47
2023-11-15T13:11:28.161Z,6.35
2023-11-15T13:13:55.707Z,12.70
2023-11-15T13:16:25.423Z,0.85
2023-11-15T13:18:52.526Z,6.03
2023-11-15T13:21:23.460Z,4.47
2023-11-15T13:23:55.385Z,2.30
2023-11-15T13:26:25.626Z,5.68
2023-11-15T13:28:54.413Z,4.55
2023-11-15T13:31:26.494Z,2.60
2023-11-15T13:33:57.088Z,3.13
2023-11-15T13:36:25.745Z,7.28
2023-11-15T13:38:53.460Z,8.70
2023-11-15T13:41:24.708Z,5.82
2023-11-15T13:43:53.868Z,1.15
2023-11-15T13:46:24.544Z,4.05
2023-11-15T13:48:53.990Z,3.42
2023-11-15T13:51:22.636Z,46.28
2023-11-15T13:53:49.769Z,40.50
2023-11-15T13:56:16.768Z,2.50
2023-11-15T13:58:43.729Z,1.92
2023-11-15T14:01:12.704Z,1.85
2023-11-15T14:03:40.121Z,3.63
2023-11-15T14:06:08.377Z,10.00
2023-11-15T14:08:50.868Z,6.88
2023-11-15T14:11:23.884Z,4.95
2023-11-15T14:13:50.882Z,10.40
2023-11-15T14:16:17.979Z,8.88
2023-11-15T14:18:48.944Z,3.40
2023-11-15T14:21:16.481Z,8.80
2023-11-15T14:23:43.616Z,1.33
2023-11-15T14:26:11.483Z,6.22
2023-11-15T14:28:38.499Z,5.95
2023-11-15T14:31:06.206Z,11.00
2023-11-15T14:33:33.938Z,12.43
2023-11-15T14:36:01.041Z,20.73
2023-11-15T14:38:28.079Z,9.00
2023-11-15T14:40:56.779Z,12.38
2023-11-15T14:43:24.032Z,9.38
2023-11-15T14:45:51.533Z,2.38
2023-11-15T14:48:18.661Z,1.30
2023-11-15T14:50:45.735Z,2.42
2023-11-15T14:53:24.647Z,3.03
2023-11-15T14:55:54.753Z,2.45
2023-11-15T14:58:26.626Z,6.35
2023-11-15T15:00:53.844Z,15.60
2023-11-15T15:03:23.761Z,15.95
2023-11-15T15:05:53.056Z,4.40
2023-11-15T15:08:22.880Z,14.02
2023-11-15T15:10:54.701Z,8.70
2023-11-15T15:15:49.579Z,6.38
2023-11-15T15:18:21.732Z,12.45
2023-11-15T15:20:52.900Z,7.03
2023-11-15T15:23:21.364Z,4.53
2023-11-15T15:25:48.624Z,4.13
2023-11-15T15:28:15.946Z,7.00
2023-11-15T15:30:44.536Z,12.32
2023-11-15T15:33:12.116Z,8.15
2023-11-15T15:35:39.576Z,8.02
2023-11-15T15:38:08.920Z,6.47
2023-11-15T15:40:39.938Z,18.50
2023-11-15T15:43:16.725Z,25.35
2023-11-15T15:45:46.379Z,16.35
2023-11-15T15:48:14.128Z,26.88
2023-11-15T15:50:42.678Z,5.00
2023-11-15T15:53:10.567Z,4.38
2023-11-15T15:55:37.993Z,4.50
2023-11-15T15:58:07.010Z,1.42
2023-11-15T16:00:36.500Z,5.60
2023-11-15T16:03:03.527Z,6.38
2023-11-15T16:05:30.557Z,9.07
2023-11-15T16:07:58.341Z,10.93
2023-11-15T16:10:26.881Z,11.95
2023-11-15T16:12:53.886Z,13.57
2023-11-15T16:15:21.145Z,14.85
2023-11-15T16:17:50.110Z,8.88
2023-11-15T16:20:21.126Z,9.60
2023-11-15T16:22:48.121Z,15.52
2023-11-15T16:25:16.321Z,18.33
2023-11-15T16:27:43.387Z,20.23
2023-11-15T16:30:15.207Z,18.35
2023-11-15T16:32:47.526Z,8.18
2023-11-15T16:35:15.684Z,9.98
2023-11-15T16:37:43.342Z,10.90
2023-11-15T16:40:11.700Z,11.38
2023-11-15T16:42:40.050Z,6.90
2023-11-15T16:45:08.660Z,9.50
2023-11-15T16:47:37.181Z,11.57
2023-11-15T16:50:05.097Z,9.35
2023-11-15T16:52:34.444Z,12.25
2023-11-15T16:55:02.700Z,8.27
2023-11-15T16:57:29.779Z,6.45
2023-11-15T16:59:58.632Z,7.53
2023-11-15T17:02:25.729Z,6.85
2023-11-15T17:04:53.266Z,8.73
2023-11-15T17:07:20.303Z,2.30
2023-11-15T17:09:50.639Z,3.55
2023-11-15T17:12:19.042Z,4.88
2023-11-15T17:14:46.234Z,5.88
2023-11-15T17:17:16.478Z,4.25
2023-11-15T17:19:44.083Z,2.33
2023-11-15T17:22:11.209Z,3.92
2023-11-15T17:24:38.229Z,5.95
2023-11-15T17:27:05.239Z,3.78
2023-11-15T17:29:33.386Z,2.35
2023-11-15T17:32:03.708Z,3.55
2023-11-15T17:34:30.774Z,4.13
2023-11-15T17:36:57.871Z,4.18
2023-11-15T17:39:26.631Z,1.55
2023-11-15T17:41:56.932Z,7.22
2023-11-15T17:44:24.264Z,4.95
2023-11-15T17:46:51.792Z,6.45
2023-11-15T17:49:18.891Z,4.25
2023-11-15T17:51:46.454Z,3.45
2023-11-15T17:54:15.635Z,5.03
2023-11-15T17:56:43.069Z,5.35
2023-11-15T17:59:10.129Z,5.57
2023-11-15T18:01:40.002Z,2.80
2023-11-15T18:04:15.176Z,5.75
2023-11-15T18:06:43.011Z,3.42
2023-11-15T18:09:11.522Z,1.95
2023-11-15T18:11:39.351Z,5.70
2023-11-15T18:14:07.538Z,2.78
2023-11-15T18:16:34.666Z,6.93
2023-11-15T18:19:09.207Z,2.25
2023-11-15T18:21:36.639Z,6.13
2023-11-15T18:24:03.761Z,2.03
2023-11-15T18:26:35.829Z,8.48
2023-11-15T18:29:02.883Z,1.17
2023-11-15T18:31:30.092Z,5.85
2023-11-15T18:33:58.159Z,1.58
2023-11-15T18:36:25.828Z,0.90
2023-11-15T18:38:53.149Z,1.48
2023-11-15T18:41:20.219Z,0.68
2023-11-15T18:43:47.313Z,1.23
2023-11-15T18:46:14.588Z,1.83
2023-11-15T18:48:41.822Z,2.70
2023-11-15T18:51:09.182Z,1.27
2023-11-15T18:53:36.159Z,1.98
2023-11-15T18:56:03.208Z,0.75
2023-11-15T18:58:30.119Z,1.75
2023-11-15T19:00:58.133Z,1.58
2023-11-15T19:03:26.286Z,0.70
2023-11-15T19:05:55.651Z,0.70
2023-11-15T19:08:24.339Z,2.30
2023-11-15T19:10:55.480Z,1.10
2023-11-15T19:13:22.998Z,3.33
2023-11-15T19:15:51.920Z,2.75
2023-11-15T19:18:20.519Z,2.83
2023-11-15T19:20:47.566Z,1.67
2023-11-15T19:23:16.462Z,3.90
2023-11-15T19:25:43.441Z,1.83
2023-11-15T19:28:10.447Z,1.02
2023-11-15T19:30:37.450Z,1.88
2023-11-15T19:33:04.581Z,2.00
2023-11-15T19:35:31.781Z,1.60
2023-11-15T19:37:58.836Z,1.20
2023-11-15T19:40:25.923Z,1.52
2023-11-15T19:42:52.981Z,1.00
2023-11-15T19:45:21.731Z,0.90
2023-11-15T19:47:49.076Z,1.33
2023-11-15T19:50:16.963Z,1.58
2023-11-15T19:52:45.465Z,1.77
2023-11-15T19:55:14.726Z,1.63
2023-11-15T19:57:41.914Z,1.77
2023-11-15T20:00:13.305Z,1.73
2023-11-15T20:02:46.717Z,2.47
2023-11-15T20:05:16.354Z,0.63
2023-11-15T20:07:43.745Z,1.42
2023-11-15T20:10:11.001Z,3.53
2023-11-15T20:12:42.424Z,1.40
2023-11-15T20:15:15.311Z,0.95
2023-11-15T20:17:43.385Z,3.13
2023-11-15T20:20:11.055Z,1.60
2023-11-15T20:22:45.870Z,1.75
2023-11-15T20:25:20.049Z,0.50
2023-11-15T20:27:47.068Z,0.75
2023-11-15T20:30:14.828Z,1.92
2023-11-15T20:32:42.263Z,1.92
2023-11-15T20:35:09.684Z,0.80
2023-11-15T20:37:36.717Z,1.20
2023-11-15T20:40:06.294Z,0.70
2023-11-15T20:42:33.936Z,0.95
2023-11-15T20:45:01.734Z,1.02
2023-11-15T20:47:28.941Z,1.33
2023-11-15T20:49:56.133Z,3.35
2023-11-15T20:52:25.902Z,2.63
2023-11-15T20:54:53.089Z,0.52
2023-11-15T20:57:20.753Z,3.35
2023-11-15T20:59:47.759Z,1.70
2023-11-15T21:02:15.543Z,2.13
2023-11-15T21:04:43.286Z,0.52
2023-11-15T21:07:11.471Z,1.95
2023-11-15T21:09:39.791Z,0.88
2023-11-15T21:12:07.105Z,1.38
2023-11-15T21:14:34.614Z,0.73
2023-11-15T21:17:01.626Z,0.73
2023-11-15T21:19:28.673Z,2.03
2023-11-15T21:21:56.134Z,3.25
2023-11-15T21:24:23.531Z,1.02
2023-11-15T21:26:55.340Z,3.38
2023-11-15T21:29:23.922Z,0.55
2023-11-15T21:31:54.711Z,1.00
2023-11-15T21:34:21.868Z,1.05
2023-11-15T21:36:49.052Z,1.30
2023-11-15T21:39:16.201Z,1.20
2023-11-15T21:41:43.273Z,2.42
2023-11-15T21:44:10.205Z,1.35
2023-11-15T21:46:38.410Z,0.65
2023-11-15T21:49:05.483Z,1.42
2023-11-15T21:51:32.743Z,1.88
2023-11-15T21:54:01.460Z,0.95
2023-11-15T21:56:28.462Z,0.70
2023-11-15T21:58:55.504Z,0.10
2023-11-15T22:01:22.991Z,0.57
2023-11-15T22:03:50.126Z,0.43
2023-11-15T22:06:17.309Z,0.95
2023-11-15T22:08:44.571Z,1.38
2023-11-15T22:11:12.034Z,0.77
2023-11-15T22:13:39.026Z,0.32
2023-11-15T22:16:06.556Z,0.52
2023-11-15T22:18:33.665Z,0.57
2023-11-15T22:21:00.679Z,0.82
2023-11-15T22:23:27.637Z,2.00
2023-11-15T22:25:54.998Z,2.40
2023-11-15T22:28:21.953Z,1.08
2023-11-15T22:30:50.679Z,1.40
2023-11-15T22:33:18.021Z,1.88
2023-11-15T22:35:49.648Z,2.88
2023-11-15T22:38:17.053Z,0.45
2023-11-15T22:40:44.148Z,0.50
2023-11-15T22:43:11.643Z,6.93
2023-11-15T22:45:38.654Z,0.40
2023-11-15T22:48:06.207Z,1.63
2023-11-15T22:50:34.297Z,0.50
2023-11-15T22:53:01.385Z,0.77
2023-11-15T22:55:28.470Z,0.70
2023-11-15T22:57:55.411Z,0.73
2023-11-15T23:00:35.101Z,0.77
2023-11-15T23:03:12.004Z,0.50
2023-11-15T23:05:41.946Z,1.02
2023-11-15T23:08:10.268Z,0.28
2023-11-15T23:10:38.661Z,0.38
2023-11-15T23:13:05.976Z,0.90
2023-11-15T23:15:34.077Z,0.50
2023-11-15T23:18:01.246Z,0.80
2023-11-15T23:20:28.342Z,0.95
2023-11-15T23:22:56.654Z,0.95
2023-11-15T23:25:27.295Z,0.35
2023-11-15T23:27:57.214Z,1.02
2023-11-15T23:30:27.916Z,3.03
2023-11-15T23:32:55.033Z,0.63
2023-11-15T23:35:23.357Z,0.63
2023-11-15T23:37:51.013Z,0.50
2023-11-15T23:40:19.178Z,0.40
2023-11-15T23:42:49.048Z,0.65
2023-11-15T23:45:16.093Z,0.75
2023-11-15T23:47:43.517Z,0.65
2023-11-15T23:50:10.924Z,0.52
2023-11-15T23:52:37.953Z,2.17
2023-11-15T23:55:05.524Z,1.73
2023-11-15T23:57:35.833Z,1.95
